Time;durP1;ratioP1;P1;durP2;ratioP2;P2;SDS_P1;SDS_P2;PMS_P1;PMS_P2;Temp;Humidity;BMP_temperature;BMP_pressure;BME280_temperature;BME280_humidity;BME280_pressure;Samples;Min_cycle;Max_cycle;Signal;HPM_P1;HPM_P2
2023/12/02 00:01:07;;;;;;;9.23;5.17;;;4.20;99.90;;;;;;5034220;28;20721;-77
2023/12/02 00:03:34;;;;;;;9.67;5.77;;;4.10;99.90;;;;;;5033064;28;20205;-77
2023/12/02 00:06:03;;;;;;;7.73;4.53;;;4.10;99.90;;;;;;5044251;28;20198;-75
2023/12/02 00:08:30;;;;;;;8.80;4.93;;;4.10;99.90;;;;;;5027620;28;20292;-74
2023/12/02 00:10:57;;;;;;;5.93;3.60;;;4.10;99.90;;;;;;5031927;28;20243;-73
2023/12/02 00:13:25;;;;;;;8.30;4.97;;;4.10;99.90;;;;;;5051497;28;20685;-72
2023/12/02 00:15:54;;;;;;;7.90;4.83;;;4.10;99.90;;;;;;5049193;28;20200;-72
2023/12/02 00:18:21;;;;;;;9.07;5.50;;;4.20;99.90;;;;;;5032706;28;20255;-72
2023/12/02 00:20:48;;;;;;;8.70;5.57;;;4.20;99.90;;;;;;5033017;28;20204;-74
2023/12/02 00:23:16;;;;;;;11.47;6.03;;;4.10;99.90;;;;;;5047972;28;20190;-72
2023/12/02 00:25:43;;;;;;;9.83;5.97;;;4.10;99.90;;;;;;5051417;28;20198;-73
2023/12/02 00:28:10;;;;;;;10.57;6.23;;;4.10;99.90;;;;;;5046431;28;20685;-72
2023/12/02 00:30:37;;;;;;;9.17;5.80;;;4.20;99.90;;;;;;5052204;28;20669;-73
2023/12/02 00:33:05;;;;;;;14.33;7.07;;;4.10;99.90;;;;;;5051480;28;20213;-73
2023/12/02 00:35:32;;;;;;;12.97;6.87;;;4.10;99.90;;;;;;5050369;28;20198;-72
2023/12/02 00:37:59;;;;;;;14.73;6.87;;;4.10;99.90;;;;;;5050750;28;20198;-73
2023/12/02 00:40:26;;;;;;;13.33;7.33;;;4.10;99.90;;;;;;5051854;28;20202;-72
2023/12/02 00:42:54;;;;;;;16.73;7.73;;;4.10;99.90;;;;;;5026746;28;20666;-73
2023/12/02 00:45:21;;;;;;;15.37;7.90;;;4.20;99.90;;;;;;5051694;28;20197;-74
2023/12/02 00:47:48;;;;;;;16.30;7.50;;;4.10;99.90;;;;;;5046167;28;20210;-74
2023/12/02 00:50:17;;;;;;;14.87;7.60;;;4.10;99.90;;;;;;5050895;28;20207;-74
2023/12/02 00:52:44;;;;;;;15.50;7.80;;;4.10;99.90;;;;;;5048681;28;20287;-74
2023/12/02 00:55:11;;;;;;;15.23;7.83;;;4.20;99.90;;;;;;5028320;28;20654;-73
2023/12/02 00:57:38;;;;;;;13.77;6.80;;;4.20;99.90;;;;;;5043287;28;20194;-74
2023/12/02 01:00:08;;;;;;;16.93;7.30;;;4.10;99.90;;;;;;5037662;28;20621;-74
2023/12/02 01:02:35;;;;;;;12.63;7.20;;;4.10;99.90;;;;;;5031824;28;20196;-73
2023/12/02 01:05:03;;;;;;;14.37;7.10;;;4.10;99.90;;;;;;5044563;28;20190;-72
2023/12/02 01:07:32;;;;;;;13.47;7.40;;;4.10;99.90;;;;;;5049251;28;20840;-74
2023/12/02 01:09:59;;;;;;;12.07;6.23;;;4.10;99.90;;;;;;5034399;28;20194;-73
2023/12/02 01:12:27;;;;;;;12.07;6.30;;;4.10;99.90;;;;;;5034431;28;20216;-74
2023/12/02 01:14:54;;;;;;;10.27;5.83;;;4.20;99.90;;;;;;5046700;28;20206;-74
2023/12/02 01:17:21;;;;;;;9.97;5.33;;;4.10;99.90;;;;;;5031876;28;20549;-74
2023/12/02 01:19:48;;;;;;;9.40;5.37;;;4.10;99.90;;;;;;5050421;28;20195;-73
2023/12/02 01:22:15;;;;;;;9.97;4.93;;;4.10;99.90;;;;;;5047878;28;20268;-73
2023/12/02 01:24:44;;;;;;;8.90;4.60;;;4.10;99.90;;;;;;5048722;28;20205;-72
2023/12/02 01:27:11;;;;;;;5.70;4.20;;;4.10;99.90;;;;;;5048041;28;20204;-72
2023/12/02 01:29:38;;;;;;;5.97;4.00;;;4.20;99.90;;;;;;5051587;28;20209;-72
2023/12/02 01:32:06;;;;;;;7.57;4.00;;;4.20;99.90;;;;;;5047204;28;20619;-76
2023/12/02 01:34:33;;;;;;;7.23;4.60;;;4.20;99.90;;;;;;5033114;28;20696;-77
2023/12/02 01:37:00;;;;;;;10.10;5.63;;;4.20;99.90;;;;;;5051834;28;20190;-77
2023/12/02 01:39:30;;;;;;;8.73;4.23;;;4.30;99.90;;;;;;5031552;28;20653;-76
2023/12/02 01:41:59;;;;;;;6.77;4.60;;;4.30;99.90;;;;;;5047611;28;20225;-77
2023/12/02 01:44:26;;;;;;;9.13;5.03;;;4.40;99.90;;;;;;5052092;28;20189;-77
2023/12/02 01:46:53;;;;;;;6.13;4.53;;;4.40;99.90;;;;;;5051244;28;20197;-77
2023/12/02 01:49:22;;;;;;;6.50;4.10;;;4.40;99.90;;;;;;5027801;28;20206;-76
2023/12/02 01:51:49;;;;;;;6.00;3.80;;;4.40;99.90;;;;;;5028754;28;20578;-75
2023/12/02 01:54:17;;;;;;;5.10;3.33;;;4.40;99.90;;;;;;5032388;28;20200;-75
2023/12/02 01:56:44;;;;;;;6.10;3.70;;;4.30;99.90;;;;;;5028093;28;20225;-76
2023/12/02 01:59:28;;;;;;;7.10;4.40;;;4.40;99.90;;;;;;5030366;28;20194;-72
2023/12/02 02:01:55;;;;;;;6.17;4.03;;;4.40;99.90;;;;;;5032368;28;20194;-73
2023/12/02 02:04:23;;;;;;;5.60;4.07;;;4.40;99.90;;;;;;5032642;28;20197;-73
2023/12/02 02:06:50;;;;;;;6.07;3.63;;;4.40;99.90;;;;;;5031845;28;20210;-72
2023/12/02 02:09:17;;;;;;;4.90;3.47;;;4.40;99.90;;;;;;5027309;28;20244;-72
2023/12/02 02:11:47;;;;;;;7.33;4.73;;;4.40;99.90;;;;;;5044258;28;20301;-72
2023/12/02 02:14:14;;;;;;;7.03;4.10;;;4.40;99.90;;;;;;5030413;28;20221;-71
2023/12/02 02:16:43;;;;;;;5.60;3.43;;;4.40;99.90;;;;;;5042123;28;20285;-73
2023/12/02 02:19:11;;;;;;;6.63;3.70;;;4.40;99.90;;;;;;5027415;28;20278;-72
2023/12/02 02:21:40;;;;;;;5.57;3.90;;;4.40;99.90;;;;;;5025108;28;20225;-76
2023/12/02 02:24:10;;;;;;;5.17;3.37;;;4.40;99.90;;;;;;5039775;28;20186;-72
2023/12/02 02:26:37;;;;;;;5.17;2.83;;;4.40;99.90;;;;;;5046463;28;20607;-71
2023/12/02 02:29:04;;;;;;;5.90;3.77;;;4.30;99.90;;;;;;5031935;28;20221;-72
2023/12/02 02:31:31;;;;;;;3.30;2.80;;;4.30;99.90;;;;;;5045180;28;20285;-72
2023/12/02 02:33:58;;;;;;;4.90;3.23;;;4.30;99.90;;;;;;5029083;28;20210;-71
2023/12/02 02:36:25;;;;;;;5.33;3.20;;;4.30;99.90;;;;;;5025915;28;20248;-71
2023/12/02 02:38:54;;;;;;;5.83;3.50;;;4.30;99.90;;;;;;5049266;28;20206;-71
2023/12/02 02:41:21;;;;;;;6.70;3.67;;;4.30;99.90;;;;;;5049811;28;20195;-74
2023/12/02 02:43:48;;;;;;;7.00;3.43;;;4.30;99.90;;;;;;5032781;28;20190;-74
2023/12/02 02:46:15;;;;;;;4.77;3.43;;;4.30;99.90;;;;;;5048579;28;20213;-75
2023/12/02 02:48:43;;;;;;;5.87;3.47;;;4.30;99.90;;;;;;5050274;28;20257;-75
2023/12/02 02:51:10;;;;;;;5.67;3.47;;;4.30;99.90;;;;;;5048814;28;20240;-74
2023/12/02 02:53:37;;;;;;;5.27;3.50;;;4.30;99.90;;;;;;5043824;28;20244;-71
2023/12/02 02:56:06;;;;;;;5.07;3.50;;;4.30;99.90;;;;;;5031299;28;20201;-71
2023/12/02 02:58:36;;;;;;;5.07;3.50;;;4.30;99.90;;;;;;5044079;28;20193;-71
2023/12/02 03:01:03;;;;;;;6.97;3.83;;;4.20;99.90;;;;;;5028822;28;20245;-70
2023/12/02 03:03:30;;;;;;;4.97;3.60;;;4.30;99.90;;;;;;5028939;28;20297;-71
2023/12/02 03:05:57;;;;;;;6.47;3.47;;;4.30;99.90;;;;;;5025301;28;20210;-74
2023/12/02 03:08:24;;;;;;;6.20;3.77;;;4.20;99.90;;;;;;5037713;28;20618;-75
2023/12/02 03:10:52;;;;;;;6.37;3.77;;;4.30;99.90;;;;;;5018359;28;20212;-76
2023/12/02 03:13:20;;;;;;;3.97;3.23;;;4.30;99.90;;;;;;5023958;28;20256;-82
2023/12/02 03:15:47;;;;;;;4.67;3.23;;;4.20;99.90;;;;;;5029684;28;20729;-82
2023/12/02 03:18:14;;;;;;;4.57;3.00;;;4.10;99.90;;;;;;5030458;28;20209;-81
2023/12/02 03:20:44;;;;;;;4.17;2.77;;;4.10;99.90;;;;;;5031255;28;20661;-81
2023/12/02 03:23:11;;;;;;;3.70;2.67;;;4.00;99.90;;;;;;5028404;28;20222;-80
2023/12/02 03:25:38;;;;;;;3.03;2.40;;;4.00;99.90;;;;;;5032400;28;20301;-73
2023/12/02 03:28:05;;;;;;;3.23;2.50;;;4.00;99.90;;;;;;5028294;28;20202;-68
2023/12/02 03:30:34;;;;;;;4.47;3.10;;;3.90;99.90;;;;;;5027036;28;20699;-69
2023/12/02 03:33:01;;;;;;;3.33;2.37;;;3.90;99.90;;;;;;5031259;28;20219;-69
2023/12/02 03:35:28;;;;;;;3.80;3.10;;;4.00;99.90;;;;;;5031123;28;20576;-69
2023/12/02 03:37:55;;;;;;;5.63;3.20;;;4.00;99.90;;;;;;5030521;28;20653;-69
2023/12/02 03:40:22;;;;;;;4.93;3.17;;;4.00;99.90;;;;;;5026049;28;20294;-72
2023/12/02 03:42:49;;;;;;;5.87;3.70;;;4.00;99.90;;;;;;5029420;28;20210;-73
2023/12/02 03:45:16;;;;;;;3.90;3.07;;;4.10;99.90;;;;;;5031461;28;20264;-74
2023/12/02 03:47:45;;;;;;;3.50;2.53;;;4.10;99.90;;;;;;5034372;28;20194;-74
2023/12/02 03:50:12;;;;;;;3.10;2.70;;;4.10;99.90;;;;;;5033163;28;20202;-73
2023/12/02 03:52:39;;;;;;;6.67;3.47;;;4.10;99.90;;;;;;5032280;28;20198;-72
2023/12/02 03:55:07;;;;;;;5.50;3.33;;;4.10;99.90;;;;;;5033926;28;20202;-75
2023/12/02 03:57:34;;;;;;;4.87;3.27;;;4.10;99.90;;;;;;5025852;28;20809;-78
2023/12/02 04:00:06;;;;;;;6.03;3.80;;;4.20;99.90;;;;;;5035439;28;20239;-77
2023/12/02 04:02:33;;;;;;;4.80;2.97;;;4.20;99.90;;;;;;5046621;28;20218;-77
2023/12/02 04:05:02;;;;;;;5.20;2.90;;;4.20;99.90;;;;;;5025794;28;20217;-77
2023/12/02 04:07:30;;;;;;;4.03;3.07;;;4.20;99.90;;;;;;5024877;28;20572;-77
2023/12/02 04:09:57;;;;;;;3.90;2.57;;;4.20;99.90;;;;;;5053074;28;20198;-77
2023/12/02 04:12:24;;;;;;;3.90;2.50;;;4.20;99.90;;;;;;5032066;28;20201;-78
2023/12/02 04:14:51;;;;;;;4.57;2.47;;;4.20;99.90;;;;;;5045826;28;20256;-77
2023/12/02 04:17:18;;;;;;;2.57;2.20;;;4.30;99.90;;;;;;5050856;28;20202;-72
2023/12/02 04:19:45;;;;;;;3.07;2.13;;;4.30;99.90;;;;;;5031546;28;20300;-75
2023/12/02 04:22:13;;;;;;;1.90;1.70;;;4.30;99.90;;;;;;5028455;28;20201;-72
2023/12/02 04:24:40;;;;;;;2.33;2.13;;;4.30;99.90;;;;;;5033851;28;20198;-72
2023/12/02 04:27:08;;;;;;;2.77;2.40;;;4.30;99.90;;;;;;5052239;28;20209;-72
2023/12/02 04:29:36;;;;;;;2.40;2.20;;;4.30;99.90;;;;;;5034133;28;20256;-73
2023/12/02 04:32:04;;;;;;;3.50;2.30;;;4.20;99.90;;;;;;5050925;28;20750;-72
2023/12/02 04:34:31;;;;;;;2.47;1.90;;;4.30;99.90;;;;;;5029187;28;20305;-74
2023/12/02 04:36:58;;;;;;;2.10;1.90;;;4.30;99.90;;;;;;5048101;28;20271;-73
2023/12/02 04:39:27;;;;;;;1.87;1.77;;;4.30;99.90;;;;;;5031034;28;20194;-71
2023/12/02 04:41:54;;;;;;;3.07;2.17;;;4.30;99.90;;;;;;5026285;28;20206;-72
2023/12/02 04:44:22;;;;;;;2.43;2.00;;;4.30;99.90;;;;;;5050535;28;20723;-72
2023/12/02 04:46:49;;;;;;;2.37;2.13;;;4.30;99.90;;;;;;5049829;28;20221;-71
2023/12/02 04:49:16;;;;;;;2.20;2.00;;;4.30;99.90;;;;;;5048189;28;20201;-71
2023/12/02 04:51:43;;;;;;;2.67;2.17;;;4.30;99.90;;;;;;5046341;28;20281;-71
2023/12/02 04:54:10;;;;;;;3.17;2.20;;;4.30;99.90;;;;;;5040395;28;20276;-72
2023/12/02 04:56:39;;;;;;;3.07;2.20;;;4.30;99.90;;;;;;5034177;28;20202;-77
2023/12/02 04:59:06;;;;;;;2.17;1.90;;;4.30;99.90;;;;;;5047205;28;20235;-75
2023/12/02 05:01:33;;;;;;;2.17;1.53;;;4.30;99.90;;;;;;5050165;28;20229;-75
2023/12/02 05:04:00;;;;;;;1.70;1.60;;;4.30;99.90;;;;;;5049643;28;20221;-75
2023/12/02 05:06:27;;;;;;;2.27;1.87;;;4.20;99.90;;;;;;5021877;28;20198;-74
2023/12/02 05:08:54;;;;;;;1.90;1.80;;;4.20;99.90;;;;;;5024207;28;20198;-72
2023/12/02 05:11:22;;;;;;;2.60;1.87;;;4.20;99.90;;;;;;5027160;28;20210;-73
2023/12/02 05:13:51;;;;;;;1.73;1.63;;;4.20;99.90;;;;;;5026798;28;20217;-74
2023/12/02 05:16:19;;;;;;;1.40;1.30;;;4.20;99.90;;;;;;5023021;28;20240;-74
2023/12/02 05:18:47;;;;;;;1.93;1.47;;;4.20;99.90;;;;;;5033313;28;20207;-74
2023/12/02 05:21:15;;;;;;;1.40;1.30;;;4.20;99.90;;;;;;5050719;28;20213;-74
2023/12/02 05:23:42;;;;;;;1.30;1.20;;;4.10;99.90;;;;;;5050661;28;20190;-74
2023/12/02 05:26:09;;;;;;;0.90;0.90;;;4.10;99.90;;;;;;5031386;28;20201;-73
2023/12/02 05:28:38;;;;;;;1.20;1.10;;;4.10;99.90;;;;;;5044905;28;20195;-74
2023/12/02 05:31:07;;;;;;;1.30;1.20;;;4.10;99.90;;;;;;5026451;28;20194;-74
2023/12/02 05:33:35;;;;;;;1.73;1.53;;;4.10;99.90;;;;;;5033854;28;20229;-74
2023/12/02 05:36:02;;;;;;;1.80;1.70;;;4.10;99.90;;;;;;5051654;28;20255;-73
2023/12/02 05:38:29;;;;;;;2.10;1.77;;;4.10;99.90;;;;;;5032982;28;20215;-73
2023/12/02 05:40:56;;;;;;;1.87;1.67;;;4.20;99.90;;;;;;5048062;28;20656;-74
2023/12/02 05:43:23;;;;;;;1.57;1.47;;;4.10;99.90;;;;;;5027168;28;20616;-73
2023/12/02 05:45:50;;;;;;;1.93;1.50;;;4.10;99.90;;;;;;5038357;28;20601;-71
2023/12/02 05:48:18;;;;;;;1.63;1.53;;;4.10;99.90;;;;;;5021633;28;20234;-73
2023/12/02 05:50:46;;;;;;;2.33;1.77;;;4.10;99.90;;;;;;5027669;28;20672;-72
2023/12/02 05:53:13;;;;;;;3.43;2.57;;;4.00;99.90;;;;;;5043951;28;20194;-71
2023/12/02 05:55:40;;;;;;;3.13;2.43;;;4.00;99.90;;;;;;5039093;28;20252;-74
2023/12/02 05:58:07;;;;;;;3.87;2.90;;;4.00;99.90;;;;;;5048961;28;20665;-75
2023/12/02 06:00:35;;;;;;;2.93;2.40;;;4.00;99.90;;;;;;5049401;28;20301;-74
2023/12/02 06:03:03;;;;;;;5.73;3.33;;;4.00;99.90;;;;;;5031456;28;20201;-74
2023/12/02 06:05:31;;;;;;;5.50;3.50;;;4.00;99.90;;;;;;5045651;28;20560;-73
2023/12/02 06:07:58;;;;;;;5.63;3.60;;;4.00;99.90;;;;;;5023600;28;20327;-71
2023/12/02 06:10:25;;;;;;;5.03;2.90;;;4.00;99.90;;;;;;5040882;28;20546;-71
2023/12/02 06:12:52;;;;;;;5.40;2.70;;;3.90;99.90;;;;;;5045088;28;20202;-71
2023/12/02 06:15:19;;;;;;;3.73;2.73;;;3.90;99.90;;;;;;5050743;28;20636;-71
2023/12/02 06:17:47;;;;;;;3.67;2.57;;;3.90;99.90;;;;;;5023175;28;20210;-70
2023/12/02 06:20:14;;;;;;;4.23;2.90;;;3.80;99.90;;;;;;5025473;28;20566;-71
2023/12/02 06:22:42;;;;;;;4.77;3.13;;;3.70;99.90;;;;;;5021547;28;20197;-70
2023/12/02 06:25:09;;;;;;;7.93;4.53;;;3.70;99.90;;;;;;5030335;28;20535;-71
2023/12/02 06:27:36;;;;;;;7.03;4.10;;;3.70;99.90;;;;;;5049816;28;20225;-70
2023/12/02 06:30:04;;;;;;;7.30;4.20;;;3.80;99.90;;;;;;5031588;28;20193;-71
2023/12/02 06:32:32;;;;;;;5.30;3.80;;;3.70;99.90;;;;;;5050339;28;20233;-71
2023/12/02 06:34:59;;;;;;;6.37;4.37;;;3.70;99.90;;;;;;5048245;28;20213;-72
2023/12/02 06:37:26;;;;;;;8.00;4.50;;;3.70;99.90;;;;;;5048431;28;20662;-71
2023/12/02 06:39:54;;;;;;;6.73;4.17;;;3.70;99.90;;;;;;5030511;28;20204;-71
2023/12/02 06:42:21;;;;;;;7.87;4.60;;;3.80;99.90;;;;;;5043073;28;20553;-69
2023/12/02 06:44:49;;;;;;;9.50;4.90;;;3.80;99.90;;;;;;5023190;28;20286;-69
2023/12/02 06:47:16;;;;;;;8.27;4.90;;;3.90;99.90;;;;;;5044084;28;20194;-69
2023/12/02 06:49:43;;;;;;;6.63;3.90;;;3.90;99.90;;;;;;5045154;28;20271;-69
2023/12/02 06:52:10;;;;;;;7.00;3.97;;;4.00;99.90;;;;;;5038634;28;20207;-69
2023/12/02 06:54:38;;;;;;;5.47;3.43;;;4.00;99.90;;;;;;5048355;28;20224;-68
2023/12/02 06:57:08;;;;;;;7.23;3.90;;;4.00;99.90;;;;;;5032869;28;20207;-68
2023/12/02 06:59:35;;;;;;;6.87;4.30;;;4.00;99.90;;;;;;5051482;28;20202;-68
2023/12/02 07:02:02;;;;;;;6.10;3.70;;;4.00;99.90;;;;;;5053322;28;20273;-68
2023/12/02 07:04:30;;;;;;;6.13;3.93;;;4.00;99.90;;;;;;5050458;28;20247;-68
2023/12/02 07:06:57;;;;;;;6.33;3.80;;;4.10;99.90;;;;;;5052696;28;20248;-68
2023/12/02 07:09:24;;;;;;;4.53;3.40;;;4.10;99.90;;;;;;5051461;28;20194;-68
2023/12/02 07:11:51;;;;;;;5.70;3.73;;;4.10;99.90;;;;;;5052346;28;20201;-68
2023/12/02 07:14:19;;;;;;;4.80;3.40;;;4.10;99.90;;;;;;5052822;28;20240;-71
2023/12/02 07:16:46;;;;;;;3.50;2.67;;;4.10;99.90;;;;;;5053952;28;20202;-71
2023/12/02 07:19:13;;;;;;;3.43;2.90;;;4.10;99.90;;;;;;5051566;28;20505;-71
2023/12/02 07:21:40;;;;;;;4.47;3.20;;;4.20;99.90;;;;;;5050543;28;20197;-69
2023/12/02 07:24:09;;;;;;;6.83;3.70;;;4.20;99.90;;;;;;5045180;28;20244;-68
2023/12/02 07:26:36;;;;;;;7.33;4.00;;;4.20;99.90;;;;;;5039598;28;20212;-69
2023/12/02 07:29:03;;;;;;;7.53;4.00;;;4.20;99.90;;;;;;5045800;28;20205;-69
2023/12/02 07:31:31;;;;;;;6.20;3.70;;;4.20;99.90;;;;;;5051636;28;20538;-67
2023/12/02 07:33:58;;;;;;;6.77;4.20;;;4.30;99.90;;;;;;5051500;28;20216;-69
2023/12/02 07:36:25;;;;;;;7.00;3.70;;;4.30;99.90;;;;;;5032465;28;20225;-69
2023/12/02 07:38:53;;;;;;;5.20;2.93;;;4.40;99.90;;;;;;5047855;28;20608;-71
2023/12/02 07:41:20;;;;;;;4.27;3.17;;;4.40;99.90;;;;;;5049359;28;20198;-73
2023/12/02 07:43:47;;;;;;;5.87;2.97;;;4.40;99.90;;;;;;5041927;28;20201;-71
2023/12/02 07:46:14;;;;;;;4.17;2.90;;;4.40;99.90;;;;;;5033951;28;20202;-71
2023/12/02 07:48:43;;;;;;;5.13;3.20;;;4.40;99.90;;;;;;5042984;28;20202;-71
2023/12/02 07:51:10;;;;;;;3.70;2.63;;;4.40;99.90;;;;;;5047837;28;20277;-72
2023/12/02 07:53:37;;;;;;;3.17;2.80;;;4.40;99.90;;;;;;5043108;28;20295;-71
2023/12/02 07:56:05;;;;;;;4.63;2.70;;;4.40;99.90;;;;;;5034703;28;20213;-72
2023/12/02 07:58:32;;;;;;;4.07;2.80;;;4.50;99.90;;;;;;5050830;28;20195;-71
2023/12/02 08:00:59;;;;;;;5.17;3.43;;;4.50;99.90;;;;;;5032916;28;20253;-73
2023/12/02 08:03:26;;;;;;;5.00;3.20;;;4.50;99.90;;;;;;5034757;28;20202;-72
2023/12/02 08:05:55;;;;;;;7.27;3.50;;;4.60;99.90;;;;;;5048219;28;20667;-74
2023/12/02 08:08:22;;;;;;;4.20;2.90;;;4.60;99.90;;;;;;5026074;28;20209;-73
2023/12/02 08:10:49;;;;;;;6.70;3.97;;;4.60;99.90;;;;;;5050524;28;20228;-71
2023/12/02 08:13:16;;;;;;;5.53;3.73;;;4.60;99.90;;;;;;5051821;28;20207;-71
2023/12/02 08:15:43;;;;;;;8.20;4.00;;;4.60;99.90;;;;;;5053180;28;20203;-69
2023/12/02 08:18:11;;;;;;;5.90;3.60;;;4.60;99.90;;;;;;5034007;28;20206;-72
2023/12/02 08:20:38;;;;;;;6.83;3.30;;;4.60;99.90;;;;;;5032058;28;20208;-73
2023/12/02 08:23:07;;;;;;;7.97;4.07;;;4.60;99.90;;;;;;5026263;28;20207;-73
2023/12/02 08:25:34;;;;;;;7.83;3.73;;;4.60;99.90;;;;;;5049498;28;20193;-70
2023/12/02 08:28:01;;;;;;;5.67;3.93;;;4.70;99.90;;;;;;5047349;28;20221;-69
2023/12/02 08:30:28;;;;;;;6.33;3.80;;;4.80;99.90;;;;;;5028814;28;20728;-71
2023/12/02 08:32:55;;;;;;;7.73;3.90;;;4.70;99.90;;;;;;5040884;28;20257;-69
2023/12/02 08:35:22;;;;;;;6.20;3.93;;;4.80;99.90;;;;;;5045809;28;20290;-71
2023/12/02 08:37:49;;;;;;;6.03;3.40;;;4.80;99.90;;;;;;5030409;28;20199;-70
2023/12/02 08:40:18;;;;;;;6.27;3.90;;;4.90;99.90;;;;;;5045156;28;20198;-69
2023/12/02 08:42:45;;;;;;;5.63;3.20;;;4.90;99.90;;;;;;5049942;28;20194;-69
2023/12/02 08:45:13;;;;;;;7.70;3.73;;;4.90;99.90;;;;;;5029404;28;20672;-72
2023/12/02 08:47:40;;;;;;;6.53;3.57;;;4.90;99.90;;;;;;5046956;28;20199;-73
2023/12/02 08:50:08;;;;;;;3.47;3.00;;;5.00;99.90;;;;;;5025964;28;20550;-72
2023/12/02 08:52:35;;;;;;;4.70;3.20;;;5.00;99.90;;;;;;5038792;28;20290;-71
2023/12/02 08:55:02;;;;;;;5.23;3.20;;;5.00;99.90;;;;;;5031466;28;20622;-71
2023/12/02 08:57:31;;;;;;;6.93;3.70;;;5.20;99.90;;;;;;5033152;28;20209;-70
2023/12/02 08:59:58;;;;;;;5.10;2.87;;;5.40;99.90;;;;;;5044845;28;20265;-71
2023/12/02 09:02:25;;;;;;;4.40;2.90;;;5.60;99.90;;;;;;5030689;28;20202;-72
2023/12/02 09:04:52;;;;;;;3.40;2.57;;;5.90;99.90;;;;;;5050089;28;20200;-74
2023/12/02 09:07:19;;;;;;;5.80;2.83;;;6.00;99.90;;;;;;5027609;28;20572;-70
2023/12/02 09:09:46;;;;;;;6.13;3.30;;;6.10;99.90;;;;;;5047753;28;20270;-74
2023/12/02 09:12:13;;;;;;;4.23;2.70;;;6.30;99.90;;;;;;5033579;28;20211;-73
2023/12/02 09:14:42;;;;;;;4.47;3.17;;;6.40;99.90;;;;;;5030333;28;20705;-74
2023/12/02 09:17:45;;;;;;;4.93;2.73;;;6.40;99.90;;;;;;5050120;28;20284;-71
2023/12/02 09:20:35;;;;;;;3.27;2.50;;;6.40;99.90;;;;;;5041730;28;20200;-71
2023/12/02 09:23:02;;;;;;;2.27;2.07;;;6.40;99.90;;;;;;5026637;28;20204;-74
2023/12/02 09:25:32;;;;;;;5.03;2.73;;;6.40;99.90;;;;;;5044580;28;20199;-70
2023/12/02 09:28:20;;;;;;;4.30;2.83;;;6.40;99.90;;;;;;5033144;28;20246;-69
2023/12/02 09:31:00;;;;;;;2.37;2.07;;;6.40;99.90;;;;;;5046583;28;20199;-72
2023/12/02 09:33:28;;;;;;;2.40;1.90;;;6.40;99.90;;;;;;5030865;28;20199;-70
2023/12/02 09:35:57;;;;;;;4.17;2.50;;;6.40;99.90;;;;;;5021291;28;20217;-71
2023/12/02 09:38:25;;;;;;;3.83;2.40;;;6.50;99.90;;;;;;5050212;28;20200;-74
2023/12/02 09:41:25;;;;;;;3.43;2.43;;;6.70;99.90;;;;;;5019374;28;20639;-73
2023/12/02 09:44:11;;;;;;;3.13;2.20;;;6.90;99.90;;;;;;5044559;28;20738;-72
2023/12/02 09:47:02;;;;;;;3.90;2.27;;;6.90;99.90;;;;;;5024513;28;20513;-73
2023/12/02 09:49:59;;;;;;;2.40;2.20;;;5.90;99.90;;;;;;5042947;28;20531;-74
2023/12/02 09:52:32;;;;;;;4.17;2.57;;;6.80;99.90;;;;;;5020324;28;20639;-71
2023/12/02 09:55:08;;;;;;;5.73;2.80;;;6.90;99.90;;;;;;5037450;28;20209;-72
2023/12/02 09:57:47;;;;;;;3.40;2.53;;;6.90;99.90;;;;;;5033903;28;20188;-71
2023/12/02 10:00:22;;;;;;;2.13;1.93;;;6.90;99.90;;;;;;5028321;28;20234;-72
2023/12/02 10:03:14;;;;;;;2.30;2.10;;;6.90;99.90;;;;;;5033392;28;20197;-72
2023/12/02 10:05:52;;;;;;;2.60;2.10;;;6.90;99.90;;;;;;5039607;28;20219;-71
2023/12/02 10:08:26;;;;;;;3.10;2.13;;;6.90;99.90;;;;;;5043396;28;20204;-73
2023/12/02 10:11:03;;;;;;;4.13;2.53;;;6.90;99.90;;;;;;5037536;28;20247;-71
2023/12/02 10:13:42;;;;;;;2.57;2.30;;;7.00;99.90;;;;;;5050275;28;20193;-71
2023/12/02 10:16:14;;;;;;;4.43;2.67;;;6.90;99.90;;;;;;5047944;28;20646;-72
2023/12/02 10:18:48;;;;;;;2.90;2.57;;;7.00;99.90;;;;;;5032282;28;20198;-72
2023/12/02 10:21:19;;;;;;;2.93;2.17;;;7.10;99.90;;;;;;5042846;28;20201;-69
2023/12/02 10:23:56;;;;;;;3.43;2.40;;;7.20;99.90;;;;;;5048023;28;20281;-72
2023/12/02 10:26:28;;;;;;;3.57;2.27;;;7.20;99.90;;;;;;5029695;28;20198;-71
2023/12/02 10:29:09;;;;;;;4.10;2.53;;;7.10;99.90;;;;;;5029935;28;20357;-71
2023/12/02 10:31:38;;;;;;;2.63;2.23;;;7.10;99.90;;;;;;5047150;28;20193;-70
2023/12/02 10:34:16;;;;;;;2.23;2.03;;;7.10;99.90;;;;;;5033891;28;20255;-71
2023/12/02 10:36:49;;;;;;;3.40;2.40;;;7.00;99.90;;;;;;5044906;28;20237;-72
2023/12/02 10:39:24;;;;;;;2.70;2.13;;;7.00;99.90;;;;;;5053519;28;20190;-72
2023/12/02 10:41:58;;;;;;;3.87;2.50;;;7.00;99.90;;;;;;5029912;28;20550;-74
2023/12/02 10:44:27;;;;;;;2.43;2.23;;;6.90;99.90;;;;;;5040255;28;20190;-72
2023/12/02 10:46:56;;;;;;;3.43;2.40;;;6.90;99.90;;;;;;5050667;28;20315;-77
2023/12/02 10:49:26;;;;;;;2.10;2.00;;;6.80;99.90;;;;;;5050974;28;20252;-73
2023/12/02 10:51:55;;;;;;;2.10;1.90;;;6.70;99.90;;;;;;5043870;28;20197;-73
2023/12/02 10:54:25;;;;;;;2.93;2.20;;;6.60;99.90;;;;;;5053432;28;20190;-73
2023/12/02 10:57:04;;;;;;;1.97;1.77;;;6.60;99.90;;;;;;5030682;28;20214;-74
2023/12/02 10:59:35;;;;;;;2.83;2.13;;;6.60;99.90;;;;;;5036432;28;20204;-74
2023/12/02 11:02:24;;;;;;;2.70;2.03;;;6.60;99.90;;;;;;5054094;28;20201;-72
2023/12/02 11:05:10;;;;;;;2.27;1.63;;;6.60;99.90;;;;;;5045963;28;20256;-71
2023/12/02 11:07:40;;;;;;;1.70;1.60;;;6.50;99.90;;;;;;5041990;28;20361;-70
2023/12/02 11:10:10;;;;;;;1.67;1.57;;;6.50;99.90;;;;;;5050686;28;20197;-71
2023/12/02 11:12:48;;;;;;;1.60;1.50;;;6.40;99.90;;;;;;5048645;28;20672;-71
2023/12/02 11:15:19;;;;;;;2.10;1.70;;;6.40;99.90;;;;;;5052077;28;20216;-70
2023/12/02 11:17:54;;;;;;;4.70;2.27;;;6.40;99.90;;;;;;5047044;28;20193;-71
2023/12/02 11:20:26;;;;;;;4.07;2.73;;;6.30;99.90;;;;;;5046991;28;20192;-72
2023/12/02 11:23:22;;;;;;;6.00;2.83;;;6.40;99.90;;;;;;5042831;28;20199;-71
2023/12/02 11:26:03;;;;;;;3.77;2.80;;;6.40;99.90;;;;;;5049859;28;20649;-72
2023/12/02 11:28:37;;;;;;;3.23;2.90;;;6.30;99.90;;;;;;5045595;28;20190;-69
2023/12/02 11:31:25;;;;;;;2.30;2.00;;;6.40;99.90;;;;;;5051369;28;20310;-71
2023/12/02 11:34:07;;;;;;;5.23;3.07;;;6.30;99.90;;;;;;5049363;28;20251;-71
2023/12/02 11:36:46;;;;;;;3.27;2.93;;;6.30;99.90;;;;;;5051037;28;20258;-69
2023/12/02 11:39:22;;;;;;;5.00;2.93;;;6.30;99.90;;;;;;5050108;28;20205;-70
2023/12/02 11:41:55;;;;;;;4.10;2.83;;;6.20;99.90;;;;;;5047423;28;20197;-70
2023/12/02 11:44:36;;;;;;;6.43;4.23;;;6.20;99.90;;;;;;5027171;28;20282;-69
2023/12/02 11:47:27;;;;;;;8.27;4.37;;;6.00;99.90;;;;;;5047891;28;20641;-69
2023/12/02 11:50:12;;;;;;;13.33;7.03;;;6.00;99.90;;;;;;5049945;28;20239;-73
2023/12/02 11:52:53;;;;;;;23.10;9.90;;;5.90;99.90;;;;;;5024556;28;20568;-75
2023/12/02 11:55:29;;;;;;;28.70;11.47;;;5.90;99.90;;;;;;5032898;28;20201;-73
2023/12/02 11:58:07;;;;;;;26.57;11.03;;;5.90;99.90;;;;;;5034806;28;20216;-75
2023/12/02 12:00:53;;;;;;;20.63;9.63;;;5.90;99.90;;;;;;5049085;28;20227;-69
2023/12/02 12:03:54;;;;;;;16.03;7.43;;;5.80;99.90;;;;;;5050812;28;20196;-70
2023/12/02 12:06:36;;;;;;;11.13;5.80;;;5.80;99.90;;;;;;5011604;28;20220;-73
2023/12/02 12:09:16;;;;;;;9.80;5.70;;;5.70;99.90;;;;;;5029696;28;20252;-71
2023/12/02 12:11:45;;;;;;;8.57;5.03;;;5.70;99.90;;;;;;5051728;28;20680;-70
2023/12/02 12:14:15;;;;;;;5.73;3.90;;;5.70;99.90;;;;;;5029275;28;20237;-72
2023/12/02 12:16:42;;;;;;;6.80;3.53;;;5.70;99.90;;;;;;5025388;28;20552;-69
2023/12/02 12:19:09;;;;;;;4.80;3.43;;;5.70;99.90;;;;;;5033170;28;20212;-71
2023/12/02 12:21:36;;;;;;;3.17;2.57;;;5.70;99.90;;;;;;5032315;28;20530;-71
2023/12/02 12:24:05;;;;;;;3.93;2.70;;;5.60;99.90;;;;;;5051579;28;20198;-70
2023/12/02 12:26:33;;;;;;;3.03;2.73;;;5.70;99.90;;;;;;5032158;28;20588;-71
2023/12/02 12:29:01;;;;;;;3.10;2.67;;;5.70;99.90;;;;;;5051067;28;20204;-71
2023/12/02 12:31:30;;;;;;;4.33;2.70;;;5.70;99.90;;;;;;5051507;28;20200;-67
2023/12/02 12:33:57;;;;;;;5.20;2.90;;;5.60;99.90;;;;;;5049916;28;20222;-70
2023/12/02 12:36:28;;;;;;;3.80;3.50;;;5.60;99.90;;;;;;5049837;28;20489;-73
2023/12/02 12:38:56;;;;;;;4.30;2.73;;;5.60;99.90;;;;;;5050036;28;20254;-70
2023/12/02 12:41:26;;;;;;;2.93;2.20;;;5.60;99.90;;;;;;5049749;28;20193;-70
2023/12/02 12:43:53;;;;;;;2.80;2.43;;;5.60;99.90;;;;;;5048698;28;20200;-70
2023/12/02 12:46:20;;;;;;;3.63;2.30;;;5.60;99.90;;;;;;5049694;28;20203;-70
2023/12/02 12:48:51;;;;;;;2.17;1.90;;;5.60;99.90;;;;;;5031489;28;20732;-70
2023/12/02 12:51:19;;;;;;;2.10;1.90;;;5.50;99.90;;;;;;5042287;28;20223;-71
2023/12/02 12:53:58;;;;;;;1.73;1.63;;;5.60;99.90;;;;;;5023809;28;20207;-70
2023/12/02 12:56:38;;;;;;;1.80;1.70;;;5.60;99.90;;;;;;5046133;28;20207;-71
2023/12/02 12:59:10;;;;;;;1.60;1.50;;;5.60;99.90;;;;;;5034059;28;20671;-72
2023/12/02 13:01:46;;;;;;;1.60;1.50;;;5.60;99.90;;;;;;5026799;28;20289;-70
2023/12/02 13:04:27;;;;;;;1.60;1.50;;;5.60;99.90;;;;;;5028653;28;20246;-72
2023/12/02 13:07:02;;;;;;;1.60;1.50;;;5.50;99.90;;;;;;5051237;28;20196;-72
2023/12/02 13:09:32;;;;;;;2.37;1.67;;;5.50;99.90;;;;;;5047792;28;20193;-72